КЛИМАТИЧНИ ДАННИ

ДНЕС
Time Temp. Dewp. Hum. Bar.
00:09 7.6 4.2 79 1017.9
00:19 7.5 4.1 79 1017.9
00:28 7.5 4.1 79 1017.9
00:39 7.4 4 79 1017.8
00:49 7.4 4.2 80 1017.8
00:59 7.3 4.1 80 1017.9
01:09 7.2 4 80 1017.9
01:19 7 3.8 80 1017.9
01:29 6.8 3.6 80 1018
01:40 6.7 3.5 80 1018
01:50 6.5 3.3 80 1018.2
01:59 6.4 3.2 80 1018.2
02:09 6.2 3 80 1018.2
02:20 6.1 2.9 80 1018.3
02:30 5.9 2.9 81 1018.3
02:39 5.8 2.8 81 1018.3
02:50 5.7 2.7 81 1018.3
03:00 5.6 2.6 81 1018.2
03:10 5.5 2.5 81 1018.2
03:20 5.3 2.3 81 1018.2
03:30 5.2 2.2 81 1018
03:40 5.1 2.1 81 1018
03:50 5 2 81 1017.9
04:01 5 2 81 1017.9
04:10 4.9 1.9 81 1017.8
04:20 4.8 1.8 81 1017.8
04:31 4.7 1.7 81 1017.7
04:41 4.6 1.8 82 1017.6
04:51 4.5 1.7 82 1017.6
05:00 4.4 1.6 82 1017.5
05:11 4.3 1.5 82 1017.5
05:21 4.2 1.4 82 1017.4
05:31 4.2 1.4 82 1017.3
05:41 4.1 1.3 82 1017.2
05:51 4.1 1.3 82 1017.2
06:01 4 1.2 82 1017.2
06:11 4 1.2 82 1017.2
06:21 3.9 1.1 82 1017.2
06:31 3.9 1.3 83 1017.2
06:40 3.9 1.3 83 1017.2
06:51 3.8 1.2 83 1017.2
07:02 3.7 1.1 83 1017.1
07:11 3.6 1 83 1017
07:21 3.5 0.9 83 1016.9
07:32 3.5 0.9 83 1016.7
07:42 3.5 0.9 83 1016.7
07:52 3.4 0.8 83 1016.7
08:02 3.4 1 84 1016.6
08:12 3.3 0.9 84 1016.7
08:22 3.2 0.8 84 1016.9
08:32 3.2 0.8 84 1017.1
08:42 3.2 0.8 84 1017
08:51 3.2 0.8 84 1017.1
09:02 3.4 1 84 1017.2
09:12 3.5 1.1 84 1017.1
09:22 3.7 1.3 84 1017.2
09:32 4 1.7 85 1017.3
09:42 4.2 1.9 85 1017.3
09:52 4.5 2.2 85 1017.3
10:03 4.9 2.6 85 1017.3
10:12 5.1 3 86 1017.3
10:23 5.4 3.2 86 1017.2
10:33 5.8 3.6 86 1017.2
10:43 6.2 4 86 1017.1
10:53 6.6 4.6 87 1017.1
11:03 7 5 87 1017.1
11:13 7.5 5.5 87 1017
11:23 8.2 6.2 87 1017.1
11:33 8.7 6.7 87 1016.9
11:43 9 7 87 1016.9
11:53 9.5 7.4 87 1016.7
12:03 9.9 7.8 87 1016.7
12:14 10.3 8.1 86 1016.6
12:24 10.7 8.5 86 1016.5
12:33 11.1 8.8 86 1016.5
12:44 11.5 9.2 86 1016.4
12:54 11.7 9.3 85 1016.4
13:04 12.2 9.8 85 1016.3

ДНЕВНИ СТАТИСТИКИ

2021-10-25
ТЕМПЕРАТУРА
СРЕДНО
5.8
ВИСОКО
12.2
13:04
МИНИМУМ
3.2
08:22
АТМОСФЕРНО НАЛЯГАНЕ
СРЕДНО
1017.4
ВИСОКО
1018.3
02:20
МИНИМУМ
1016.3
13:04
ТОЧКА НА ОРОСЯВАНЕ
СРЕДНО
3.1
ВИСОКО
9.8
13:04
МИНИМУМ
0.8
07:52
ОТНОСИТЕЛНА ВЛАЖНОСТ
СРЕДНО
83
ВИСОКО
87
10:53
МИНИМУМ
79
00:09
ТЕМПЕРАТУРА (°C)
МИНИМУМ
3.2
ВИСОКО
12.2
СРЕДНО
5.8
АТМОСФЕРНО НАЛЯГАНЕ (hpa)
МИНИМУМ
1016.3
ВИСОКО
1018.3
СРЕДНО
1017.4
DEVICE